map of HRG home
HRG - Airport
Location
City:  Hurghada, Al Bahr al Ahmar (Red Sea), Egypt
Name:Hurghada International Airport
ICAO:HEGN
IATA:HRG

Details
Type:Airport (Aerodrome, Airfield)
Use:Public/Civil, International (customs port of entry)
Latitude:2710'42"N (27.178317)
Longitude:3347'58"E (33.799436)
Datum:WGS 1984
Elevation:52 ft (16 m)
Variation:4.29E (WMM2015 magnetic declination)
0.08 annual change
Runways:1
Longest:13124 × 148 ft (4000 × 45 m), paved

Time
Time Zone:UTC+2
Local Time:

Weather
METAR:HEGN 190200Z 31003KT CAVOK 20/05 Q1015 NOSIG

Related Locations
Nearby:
Farthest:RVV: 12187 mi / 19614 km
Raivavae, Tubuai Islands, Austral Islands, PF

Find:

   beyond  
but within

Other Information
Maps:
NOTAMs:
Links:
Sources:

  
  • flag of Egypt
  • flag of Al Bahr al Ahmar (Red Sea)
  

Airport Diagram

Airport diagram for HRG

Larger airport diagram (OBSOLETE) from NGA

Sectional Chart

Flight Planning
at skyvector.com

Satellite Image

Google Maps Satellite view

 

Copyright © 2004-2018 Karl L. Swartz. All rights reserved.
The Great Circle Mapper name and logo are trademarks of the Great Circle Mapper.
All other trademarks mentioned herein belong to their respective owners.
Please see credits for attibutions and further copyright information.

  Follow gcmap on Facebook Follow gcmap on Twitter Follow gcmap on Google+ GCmap on LinkedIn

hCard Microformat

Geo Microformat